Time;durP1;ratioP1;P1;durP2;ratioP2;P2;SDS_P1;SDS_P2;PMS_P1;PMS_P2;Temp;Humidity;BMP_temperature;BMP_pressure;BME280_temperature;BME280_humidity;BME280_pressure;Samples;Min_cycle;Max_cycle;Signal;HPM_P1;HPM_P2
2022/09/06 04:01:02;;;;;;;0.67;0.60;;;15.90;99.90;;;;;;5694504;23;20505;-70
2022/09/06 04:03:29;;;;;;;0.93;0.93;;;15.90;99.90;;;;;;4991186;28;20485;-71
2022/09/06 04:05:56;;;;;;;4.63;1.20;;;15.90;99.90;;;;;;4990747;28;20484;-71
2022/09/06 04:08:23;;;;;;;1.10;1.10;;;15.90;99.90;;;;;;4991091;28;20840;-70
2022/09/06 04:10:50;;;;;;;0.80;0.80;;;15.90;99.90;;;;;;4991236;28;20511;-70
2022/09/06 04:13:17;;;;;;;1.00;1.00;;;15.90;99.90;;;;;;4990918;28;20455;-70
2022/09/06 04:15:45;;;;;;;1.17;1.03;;;15.90;99.90;;;;;;5014204;23;20846;-73
2022/09/06 04:18:14;;;;;;;0.50;0.50;;;15.80;99.90;;;;;;4990844;28;20501;-73
2022/09/06 04:20:41;;;;;;;0.77;0.70;;;15.80;99.90;;;;;;4992862;28;20490;-73
2022/09/06 04:23:07;;;;;;;0.60;0.60;;;15.80;99.90;;;;;;4994218;28;20485;-73
2022/09/06 04:25:35;;;;;;;0.70;0.70;;;15.80;99.90;;;;;;4994333;28;20513;-73
2022/09/06 04:28:02;;;;;;;3.97;0.83;;;15.90;99.90;;;;;;4989897;28;20481;-74
2022/09/06 04:30:29;;;;;;;0.50;0.50;;;15.90;99.90;;;;;;4983752;28;20475;-73
2022/09/06 04:32:55;;;;;;;1.07;1.07;;;15.90;99.90;;;;;;4980624;28;20464;-73
2022/09/06 04:35:23;;;;;;;0.53;0.53;;;15.90;99.90;;;;;;4974432;28;21045;-74
2022/09/06 04:37:50;;;;;;;1.07;0.73;;;15.90;99.90;;;;;;4974744;28;20470;-73
2022/09/06 04:40:17;;;;;;;13.73;0.87;;;15.90;99.90;;;;;;4974612;28;20488;-73
2022/09/06 04:42:44;;;;;;;0.80;0.80;;;15.90;99.90;;;;;;4982700;28;20566;-73
2022/09/06 04:45:11;;;;;;;0.70;0.70;;;15.90;99.90;;;;;;4984777;28;20489;-73
2022/09/06 04:47:38;;;;;;;1.47;0.77;;;15.90;99.90;;;;;;4974957;28;20478;-73
2022/09/06 04:50:05;;;;;;;0.30;0.30;;;15.90;99.90;;;;;;4974649;28;20799;-73
2022/09/06 04:52:33;;;;;;;0.40;0.40;;;15.90;99.90;;;;;;4974684;28;20474;-73
2022/09/06 04:55:00;;;;;;;0.87;0.80;;;15.90;99.90;;;;;;4974792;28;20511;-73
2022/09/06 04:57:26;;;;;;;0.53;0.47;;;15.90;99.90;;;;;;4974894;28;20468;-73
2022/09/06 04:59:53;;;;;;;0.43;0.43;;;15.90;99.90;;;;;;4982436;28;21014;-73
2022/09/06 05:02:20;;;;;;;0.67;0.57;;;16.00;99.90;;;;;;4974301;28;20474;-73
2022/09/06 05:04:46;;;;;;;0.40;0.40;;;16.00;99.90;;;;;;4974408;28;20802;-74
2022/09/06 05:07:13;;;;;;;0.83;0.83;;;16.00;99.90;;;;;;4973753;28;20474;-73
2022/09/06 05:09:42;;;;;;;1.07;0.70;;;16.00;99.90;;;;;;4974822;28;20490;-73
2022/09/06 05:12:08;;;;;;;0.40;0.30;;;16.00;99.90;;;;;;4974715;28;20497;-73
2022/09/06 05:14:35;;;;;;;0.60;0.60;;;16.00;99.90;;;;;;4982787;28;21054;-73
2022/09/06 05:17:02;;;;;;;0.77;0.77;;;16.00;99.90;;;;;;4989070;28;20466;-73
2022/09/06 05:19:28;;;;;;;0.40;0.40;;;16.10;99.90;;;;;;4994270;28;20494;-74
2022/09/06 05:21:55;;;;;;;0.57;0.57;;;16.10;99.90;;;;;;4993394;28;20577;-73
2022/09/06 05:24:22;;;;;;;0.67;0.67;;;16.10;99.90;;;;;;4992895;28;20554;-73
2022/09/06 05:26:50;;;;;;;0.50;0.50;;;16.10;99.90;;;;;;4993745;28;20797;-73
2022/09/06 05:29:16;;;;;;;0.97;0.97;;;16.10;99.90;;;;;;4983607;28;20463;-73
2022/09/06 05:31:43;;;;;;;0.40;0.40;;;16.10;99.90;;;;;;4983116;28;20556;-73
2022/09/06 05:34:12;;;;;;;0.60;0.60;;;16.20;99.90;;;;;;4977726;28;20463;-74
2022/09/06 05:36:40;;;;;;;0.60;0.60;;;16.20;99.90;;;;;;4973619;28;20510;-73
2022/09/06 05:39:07;;;;;;;0.60;0.60;;;16.20;99.90;;;;;;4973541;28;20491;-73
2022/09/06 05:41:33;;;;;;;0.50;0.50;;;16.20;99.90;;;;;;4974210;28;20884;-73
2022/09/06 05:44:02;;;;;;;0.50;0.50;;;16.20;99.90;;;;;;4973373;28;20950;-73
2022/09/06 05:46:29;;;;;;;0.70;0.70;;;16.20;99.90;;;;;;4980627;28;20494;-73
2022/09/06 05:48:59;;;;;;;0.60;0.60;;;16.20;99.90;;;;;;4980528;28;20522;-73
2022/09/06 05:51:26;;;;;;;0.50;0.50;;;16.20;99.90;;;;;;4983224;28;20463;-72
2022/09/06 05:53:53;;;;;;;0.80;0.70;;;16.20;99.90;;;;;;4992785;28;20486;-72
2022/09/06 05:56:21;;;;;;;0.40;0.40;;;16.20;99.90;;;;;;4993120;28;20489;-73
2022/09/06 05:58:47;;;;;;;0.47;0.47;;;16.20;99.90;;;;;;4993454;28;20489;-72
2022/09/06 06:01:18;;;;;;;4.73;0.50;;;16.20;99.90;;;;;;4993318;28;20473;-72
2022/09/06 06:03:51;;;;;;;0.60;0.60;;;16.30;99.90;;;;;;4987214;28;20494;-72
2022/09/06 06:06:18;;;;;;;0.73;0.73;;;16.30;99.90;;;;;;4989711;28;20479;-72
2022/09/06 06:08:45;;;;;;;0.60;0.60;;;16.30;99.90;;;;;;4992528;28;20466;-72
2022/09/06 06:11:12;;;;;;;0.23;0.23;;;16.30;99.90;;;;;;4992810;28;20467;-71
2022/09/06 06:13:39;;;;;;;15.70;1.53;;;16.30;99.90;;;;;;4992688;28;20493;-71
2022/09/06 06:16:06;;;;;;;0.63;0.63;;;16.30;99.90;;;;;;4992478;28;20967;-71
2022/09/06 06:18:34;;;;;;;0.60;0.60;;;16.30;99.90;;;;;;4983909;28;20462;-72
2022/09/06 06:21:12;;;;;;;0.70;0.50;;;16.40;99.90;;;;;;4990179;28;20487;-72
2022/09/06 06:23:40;;;;;;;0.57;0.57;;;16.40;99.90;;;;;;4980442;28;20669;-72
2022/09/06 06:26:07;;;;;;;0.50;0.50;;;16.40;99.90;;;;;;4973221;28;20487;-72
2022/09/06 06:28:35;;;;;;;0.40;0.40;;;16.50;99.90;;;;;;4973161;28;20472;-72
2022/09/06 06:31:02;;;;;;;0.73;0.50;;;16.50;99.90;;;;;;4972814;28;20849;-72
2022/09/06 06:33:28;;;;;;;0.40;0.40;;;16.50;99.90;;;;;;4972599;28;20472;-72
2022/09/06 06:36:02;;;;;;;0.30;0.30;;;16.50;99.90;;;;;;4978048;28;20494;-72
2022/09/06 06:38:32;;;;;;;2.00;0.57;;;16.60;99.90;;;;;;4984292;28;20785;-72
2022/09/06 06:40:59;;;;;;;0.50;0.50;;;16.60;99.90;;;;;;4992285;28;20495;-72
2022/09/06 06:43:26;;;;;;;0.77;0.77;;;16.60;99.90;;;;;;4991973;28;20578;-72
2022/09/06 06:45:53;;;;;;;0.70;0.70;;;16.70;99.90;;;;;;4992249;28;20494;-72
2022/09/06 06:48:20;;;;;;;0.53;0.30;;;16.70;99.90;;;;;;4992152;28;20496;-72
2022/09/06 06:50:46;;;;;;;0.93;0.63;;;16.70;99.90;;;;;;4982926;28;20491;-72
2022/09/06 06:53:14;;;;;;;0.70;0.70;;;16.80;99.90;;;;;;4975729;28;20937;-72
2022/09/06 06:55:47;;;;;;;0.60;0.60;;;16.80;99.90;;;;;;4972509;28;20495;-72
2022/09/06 06:58:14;;;;;;;0.50;0.50;;;16.80;99.90;;;;;;4972755;28;20565;-72
2022/09/06 07:00:41;;;;;;;0.50;0.50;;;16.90;99.90;;;;;;4972539;28;20489;-72
2022/09/06 07:03:08;;;;;;;0.57;0.57;;;16.90;99.90;;;;;;4972188;28;20509;-72
2022/09/06 07:05:34;;;;;;;0.40;0.40;;;17.00;99.90;;;;;;4976302;28;21000;-73
2022/09/06 07:08:01;;;;;;;0.80;0.80;;;17.00;99.90;;;;;;4986106;28;20477;-72
2022/09/06 07:10:29;;;;;;;0.63;0.63;;;17.00;99.90;;;;;;4991959;28;20545;-72
2022/09/06 07:12:56;;;;;;;1.30;1.20;;;17.00;99.90;;;;;;4991691;28;20468;-72
2022/09/06 07:15:23;;;;;;;0.57;0.57;;;17.00;99.90;;;;;;4991475;28;21040;-72
2022/09/06 07:17:49;;;;;;;0.50;0.50;;;17.00;99.90;;;;;;4985545;28;20994;-73
2022/09/06 07:20:16;;;;;;;0.60;0.60;;;17.00;99.90;;;;;;4979882;28;20923;-72
2022/09/06 07:22:43;;;;;;;3.83;0.60;;;17.00;99.90;;;;;;4971633;28;20472;-72
2022/09/06 07:25:10;;;;;;;0.57;0.50;;;17.00;99.90;;;;;;4972075;28;20500;-73
2022/09/06 07:27:38;;;;;;;0.50;0.50;;;17.00;99.90;;;;;;4972019;28;20492;-73
2022/09/06 07:30:06;;;;;;;0.93;0.93;;;17.00;99.90;;;;;;4972035;28;20497;-73
2022/09/06 07:32:34;;;;;;;0.70;0.70;;;17.00;99.90;;;;;;4980627;28;20519;-72
2022/09/06 07:35:01;;;;;;;0.40;0.40;;;17.10;99.90;;;;;;4985930;28;20591;-72
2022/09/06 07:37:27;;;;;;;0.80;0.80;;;17.10;99.90;;;;;;4990857;28;20556;-72
2022/09/06 07:39:54;;;;;;;0.57;0.57;;;17.10;99.90;;;;;;4982809;28;20511;-72
2022/09/06 07:42:21;;;;;;;0.70;0.57;;;17.10;99.90;;;;;;4971776;28;20503;-72
2022/09/06 07:44:49;;;;;;;0.60;0.60;;;17.10;99.90;;;;;;4971623;28;20864;-72
2022/09/06 07:47:16;;;;;;;0.50;0.50;;;17.10;99.90;;;;;;4973285;28;20472;-72
2022/09/06 07:49:43;;;;;;;0.57;0.57;;;17.20;99.90;;;;;;4979871;28;20461;-72
2022/09/06 07:52:10;;;;;;;0.43;0.43;;;17.20;99.90;;;;;;4981778;28;20487;-73
2022/09/06 07:54:36;;;;;;;0.40;0.40;;;17.20;99.90;;;;;;4991812;28;20492;-72
2022/09/06 07:57:03;;;;;;;0.50;0.50;;;17.30;99.90;;;;;;4995393;28;20475;-72
2022/09/06 07:59:30;;;;;;;0.60;0.60;;;17.30;99.90;;;;;;4995611;28;20475;-72
2022/09/06 08:01:58;;;;;;;0.80;0.80;;;17.30;99.90;;;;;;4995239;28;21002;-72
2022/09/06 08:04:25;;;;;;;0.60;0.60;;;17.30;99.90;;;;;;4985563;28;20469;-72
2022/09/06 08:06:52;;;;;;;0.87;0.87;;;17.40;99.90;;;;;;4981683;28;20461;-72
2022/09/06 08:09:19;;;;;;;0.70;0.70;;;17.40;99.90;;;;;;4975390;28;20468;-72
2022/09/06 08:11:45;;;;;;;0.70;0.70;;;17.40;99.90;;;;;;4975337;28;21142;-72
2022/09/06 08:14:12;;;;;;;0.70;0.70;;;17.40;99.90;;;;;;4975268;28;20467;-72
2022/09/06 08:16:39;;;;;;;0.70;0.70;;;17.50;99.90;;;;;;4975583;28;20476;-72
2022/09/06 08:19:09;;;;;;;0.67;0.67;;;17.50;99.90;;;;;;4985742;28;20479;-72
2022/09/06 08:21:36;;;;;;;0.70;0.70;;;17.60;99.90;;;;;;4986373;28;20574;-72
2022/09/06 08:24:04;;;;;;;0.70;0.70;;;17.70;99.90;;;;;;4993996;28;20975;-72
2022/09/06 08:26:34;;;;;;;0.53;0.53;;;17.70;99.90;;;;;;4994676;28;20485;-72
2022/09/06 08:29:02;;;;;;;0.73;0.73;;;17.80;99.90;;;;;;4989407;28;20466;-72
2022/09/06 08:31:29;;;;;;;0.47;0.47;;;17.80;99.90;;;;;;4974944;28;20469;-72
2022/09/06 08:33:57;;;;;;;0.30;0.30;;;17.90;99.90;;;;;;4988164;28;20970;-72
2022/09/06 08:36:28;;;;;;;0.83;0.80;;;17.90;99.90;;;;;;4992032;28;20500;-72
2022/09/06 08:38:55;;;;;;;0.83;0.80;;;17.90;99.90;;;;;;4994030;28;20464;-72
2022/09/06 08:41:26;;;;;;;0.80;0.80;;;17.90;99.90;;;;;;4995154;28;20492;-73
2022/09/06 08:43:54;;;;;;;0.63;0.63;;;17.90;99.90;;;;;;4983479;28;20857;-73
2022/09/06 08:46:25;;;;;;;0.40;0.40;;;17.90;99.90;;;;;;4985685;28;20493;-73
2022/09/06 08:48:52;;;;;;;0.67;0.67;;;17.90;99.90;;;;;;4975250;28;20473;-73
2022/09/06 08:51:51;;;;;;;0.67;0.67;;;17.90;99.90;;;;;;4976059;28;20487;-73
2022/09/06 08:54:25;;;;;;;1.07;1.07;;;17.90;99.90;;;;;;4975304;28;20477;-73
2022/09/06 08:57:05;;;;;;;1.27;1.17;;;18.00;99.90;;;;;;4980557;28;20480;-72
2022/09/06 08:59:37;;;;;;;1.27;1.27;;;18.00;99.90;;;;;;4984931;28;20974;-72
2022/09/06 09:02:11;;;;;;;2.57;1.13;;;18.10;99.90;;;;;;4975652;28;20497;-72
2022/09/06 09:04:43;;;;;;;1.30;1.30;;;18.10;99.90;;;;;;4990735;28;20490;-72
2022/09/06 09:07:29;;;;;;;0.80;0.80;;;18.10;99.90;;;;;;4975285;28;20477;-73
2022/09/06 09:09:58;;;;;;;0.60;0.60;;;18.20;99.90;;;;;;4988735;28;20480;-72
2022/09/06 09:12:26;;;;;;;0.80;0.80;;;18.30;99.90;;;;;;4994378;28;20474;-73
2022/09/06 09:14:59;;;;;;;0.73;0.73;;;18.30;99.90;;;;;;4993797;28;20504;-73
2022/09/06 09:17:29;;;;;;;1.03;1.03;;;18.40;99.90;;;;;;4987409;28;20509;-72
2022/09/06 09:19:56;;;;;;;0.70;0.70;;;18.60;99.90;;;;;;4982835;28;20470;-72
2022/09/06 09:22:25;;;;;;;1.67;1.60;;;18.60;99.90;;;;;;4974100;28;20526;-72
2022/09/06 09:24:52;;;;;;;0.70;0.70;;;18.80;99.90;;;;;;4974198;28;20490;-72
2022/09/06 09:27:23;;;;;;;0.93;0.93;;;18.90;99.90;;;;;;4974440;28;20474;-72
2022/09/06 09:29:59;;;;;;;1.10;1.00;;;19.00;99.90;;;;;;4974224;28;20475;-73
2022/09/06 09:32:30;;;;;;;0.70;0.70;;;19.10;99.90;;;;;;4985006;28;20473;-72
2022/09/06 09:35:16;;;;;;;0.50;0.50;;;19.10;99.90;;;;;;4993024;28;20870;-73
2022/09/06 09:37:45;;;;;;;0.67;0.67;;;19.30;99.90;;;;;;4993114;28;20593;-73
2022/09/06 09:40:18;;;;;;;0.57;0.57;;;19.40;99.90;;;;;;4993227;28;20478;-72
2022/09/06 09:42:45;;;;;;;0.93;0.93;;;19.40;99.90;;;;;;4993174;28;20869;-72
2022/09/06 09:45:27;;;;;;;1.10;1.10;;;19.40;99.90;;;;;;4993058;28;20498;-73
2022/09/06 09:47:53;;;;;;;0.50;0.50;;;19.60;99.90;;;;;;4984991;28;20520;-73
2022/09/06 09:50:26;;;;;;;0.80;0.80;;;19.60;99.90;;;;;;4990513;28;20463;-73
2022/09/06 09:52:55;;;;;;;0.70;0.70;;;19.70;99.90;;;;;;4992571;28;20471;-73
2022/09/06 09:55:25;;;;;;;1.53;0.80;;;19.90;99.90;;;;;;4992949;28;20488;-73
2022/09/06 09:57:53;;;;;;;4.87;1.20;;;20.00;99.90;;;;;;4978348;28;20473;-73
2022/09/06 10:00:33;;;;;;;0.73;0.73;;;19.90;99.90;;;;;;4973452;28;21167;-73
2022/09/06 10:03:10;;;;;;;1.37;1.37;;;20.00;99.90;;;;;;4978635;28;20474;-73
2022/09/06 10:05:37;;;;;;;1.23;1.23;;;19.90;99.90;;;;;;4981155;28;20498;-73
2022/09/06 10:08:10;;;;;;;1.00;1.00;;;20.00;99.90;;;;;;4973076;28;20475;-73
2022/09/06 10:10:40;;;;;;;1.13;1.13;;;20.20;99.90;;;;;;4973781;28;20468;-73
2022/09/06 10:13:13;;;;;;;1.00;1.00;;;20.30;99.90;;;;;;4985568;28;20535;-73
2022/09/06 10:15:41;;;;;;;1.13;1.13;;;20.50;99.90;;;;;;4973761;28;20493;-73
2022/09/06 10:18:16;;;;;;;0.97;0.97;;;20.70;99.90;;;;;;4972748;28;20793;-74
2022/09/06 10:20:50;;;;;;;17.00;1.80;;;20.80;99.90;;;;;;4981336;28;20536;-73
2022/09/06 10:23:24;;;;;;;0.80;0.80;;;20.90;99.90;;;;;;4975516;28;20536;-73
2022/09/06 10:25:59;;;;;;;1.13;1.13;;;21.00;99.90;;;;;;4972896;28;21041;-73
2022/09/06 10:28:31;;;;;;;1.83;1.83;;;21.20;99.90;;;;;;4972730;28;20477;-73
2022/09/06 10:31:26;;;;;;;1.70;1.33;;;21.40;99.90;;;;;;4972971;28;20470;-73
2022/09/06 10:34:02;;;;;;;2.40;1.00;;;21.50;99.90;;;;;;4972785;28;20500;-73
2022/09/06 10:36:34;;;;;;;0.90;0.90;;;21.60;99.90;;;;;;4982675;28;21013;-73
2022/09/06 10:39:07;;;;;;;0.80;0.80;;;21.50;99.90;;;;;;4981293;28;20476;-73
2022/09/06 10:41:57;;;;;;;1.20;1.20;;;21.60;99.90;;;;;;4973406;28;20493;-73
2022/09/06 10:44:48;;;;;;;1.17;1.17;;;21.70;99.90;;;;;;4967092;28;20485;-73
2022/09/06 10:47:15;;;;;;;1.87;1.80;;;21.90;99.90;;;;;;4972574;28;20466;-71
2022/09/06 10:49:45;;;;;;;1.40;1.40;;;21.80;99.90;;;;;;4972656;28;20836;-73
2022/09/06 10:52:18;;;;;;;1.03;1.03;;;21.80;99.90;;;;;;4977178;28;20472;-73
2022/09/06 10:54:46;;;;;;;1.13;1.13;;;21.80;99.90;;;;;;4980429;28;20484;-73
2022/09/06 10:57:21;;;;;;;1.20;1.20;;;21.90;99.90;;;;;;4985215;28;20994;-73
2022/09/06 10:59:51;;;;;;;3.03;1.50;;;21.90;99.90;;;;;;4980425;28;20500;-73
2022/09/06 11:02:32;;;;;;;1.27;1.27;;;21.80;99.90;;;;;;4972325;28;20855;-73
2022/09/06 11:05:03;;;;;;;1.97;1.97;;;21.70;99.90;;;;;;4972025;28;20481;-73
2022/09/06 11:07:33;;;;;;;1.40;1.40;;;21.70;99.90;;;;;;4972105;28;20659;-73
2022/09/06 11:10:06;;;;;;;1.50;1.50;;;21.70;99.90;;;;;;4982862;28;20480;-73
2022/09/06 11:12:40;;;;;;;1.27;1.27;;;21.80;99.90;;;;;;4990763;28;20468;-73
2022/09/06 11:15:09;;;;;;;1.60;1.40;;;21.90;99.90;;;;;;4991211;28;20604;-73
2022/09/06 11:17:42;;;;;;;1.30;1.30;;;21.90;99.90;;;;;;4991693;28;20564;-69
2022/09/06 11:20:14;;;;;;;1.50;1.50;;;21.90;99.90;;;;;;4991253;28;20453;-73
2022/09/06 11:23:33;;;;;;;0.97;0.97;;;22.00;99.90;;;;;;4990880;28;20492;-73
2022/09/06 11:26:33;;;;;;;1.60;1.60;;;22.00;99.90;;;;;;4942507;29;20499;-73
2022/09/06 11:29:02;;;;;;;1.50;1.40;;;21.90;99.90;;;;;;4923961;29;20464;-73
2022/09/06 11:31:31;;;;;;;1.87;1.80;;;21.90;99.90;;;;;;4978206;28;20802;-73
2022/09/06 11:34:07;;;;;;;1.90;1.90;;;21.80;99.90;;;;;;4991326;28;20461;-74
2022/09/06 11:36:37;;;;;;;1.20;1.20;;;21.80;99.90;;;;;;4990958;28;20482;-73
2022/09/06 11:39:07;;;;;;;1.37;1.37;;;21.90;99.90;;;;;;4990768;28;20548;-73
2022/09/06 11:41:38;;;;;;;1.27;1.27;;;21.80;99.90;;;;;;4986768;28;21015;-73
2022/09/06 11:44:06;;;;;;;1.93;1.83;;;21.70;99.90;;;;;;4978716;28;20504;-73
2022/09/06 11:46:59;;;;;;;1.60;1.60;;;21.70;99.90;;;;;;4979698;28;20518;-73
2022/09/06 11:49:43;;;;;;;1.50;1.50;;;21.70;99.90;;;;;;4971924;28;20477;-73
2022/09/06 11:52:56;;;;;;;1.40;1.40;;;21.80;99.90;;;;;;4971135;28;20472;-73
2022/09/06 11:55:30;;;;;;;2.43;1.57;;;21.90;99.90;;;;;;4971780;28;20495;-72
2022/09/06 11:57:59;;;;;;;1.10;1.10;;;21.90;99.90;;;;;;4973407;28;20480;-73
2022/09/06 12:00:26;;;;;;;1.57;1.57;;;21.80;99.90;;;;;;4979529;28;20457;-73
2022/09/06 12:02:53;;;;;;;1.20;1.20;;;21.60;99.90;;;;;;4971242;28;20497;-73
2022/09/06 12:05:26;;;;;;;1.53;1.53;;;21.60;99.90;;;;;;4970636;28;20488;-73
2022/09/06 12:08:13;;;;;;;1.40;1.40;;;21.50;99.90;;;;;;4971104;28;20513;-73
2022/09/06 12:10:56;;;;;;;1.30;1.30;;;21.40;99.90;;;;;;4971451;28;20607;-73
2022/09/06 12:13:47;;;;;;;1.80;1.80;;;21.40;99.90;;;;;;4974393;28;20984;-73
2022/09/06 12:16:16;;;;;;;1.33;1.33;;;21.40;99.90;;;;;;4976421;28;20576;-73
2022/09/06 12:18:59;;;;;;;1.70;1.70;;;21.20;99.90;;;;;;4983493;28;20460;-73
2022/09/06 12:21:42;;;;;;;1.70;1.63;;;21.20;99.90;;;;;;4990575;28;20587;-73
2022/09/06 12:24:33;;;;;;;1.50;1.50;;;21.20;99.90;;;;;;4990473;28;20454;-73
2022/09/06 12:27:11;;;;;;;3.40;1.80;;;21.20;99.90;;;;;;4990454;28;20474;-73
2022/09/06 12:29:39;;;;;;;2.73;2.63;;;21.40;99.90;;;;;;4982014;28;20962;-73
2022/09/06 12:32:07;;;;;;;1.80;1.70;;;21.40;99.90;;;;;;4983567;28;20938;-73
2022/09/06 12:34:35;;;;;;;2.47;2.47;;;21.40;99.90;;;;;;4971008;28;20624;-73
2022/09/06 12:37:05;;;;;;;1.40;1.40;;;21.40;99.90;;;;;;4971297;28;20645;-73
2022/09/06 12:39:33;;;;;;;1.47;1.47;;;21.40;99.90;;;;;;4971184;28;20491;-73
2022/09/06 12:42:02;;;;;;;0.93;0.93;;;21.30;99.90;;;;;;4974604;28;20489;-71
2022/09/06 12:44:33;;;;;;;2.33;1.47;;;21.20;99.90;;;;;;4974628;28;20479;-72
2022/09/06 12:47:06;;;;;;;1.33;1.23;;;21.20;99.90;;;;;;4981434;28;20465;-72
2022/09/06 12:49:34;;;;;;;1.53;1.53;;;21.10;99.90;;;;;;4985310;28;21103;-72
2022/09/06 12:52:12;;;;;;;1.60;1.57;;;21.20;99.90;;;;;;4979519;28;20465;-73
2022/09/06 12:54:44;;;;;;;1.43;1.40;;;21.10;99.90;;;;;;4974442;28;20490;-72
2022/09/06 12:57:14;;;;;;;1.40;1.40;;;21.10;99.90;;;;;;4974601;28;20467;-72
2022/09/06 12:59:48;;;;;;;1.20;1.20;;;21.00;99.90;;;;;;4974739;28;20476;-72
2022/09/06 13:02:20;;;;;;;1.60;1.60;;;21.10;99.90;;;;;;4976778;28;20495;-72
2022/09/06 13:04:50;;;;;;;1.20;1.20;;;21.10;99.90;;;;;;4982179;28;20506;-72
2022/09/06 13:07:19;;;;;;;1.80;1.80;;;21.10;99.90;;;;;;4973370;28;20835;-72
2022/09/06 13:09:48;;;;;;;2.03;1.67;;;21.10;99.90;;;;;;4974312;28;20469;-72
2022/09/06 13:12:25;;;;;;;1.87;1.87;;;21.00;99.90;;;;;;4974366;28;20616;-72
2022/09/06 13:14:53;;;;;;;1.97;1.87;;;21.00;99.90;;;;;;4973875;28;20492;-72
2022/09/06 13:17:26;;;;;;;3.53;1.70;;;21.00;99.90;;;;;;4974492;28;20844;-73
2022/09/06 13:19:53;;;;;;;1.67;1.67;;;21.00;99.90;;;;;;4986341;28;20867;-72
2022/09/06 13:22:41;;;;;;;1.53;1.53;;;21.00;99.90;;;;;;4984604;28;20486;-73
2022/09/06 13:25:14;;;;;;;1.53;1.53;;;20.90;99.90;;;;;;4994268;28;20611;-73
2022/09/06 13:27:45;;;;;;;2.20;1.63;;;20.90;99.90;;;;;;4994223;28;20964;-73
2022/09/06 13:30:31;;;;;;;1.20;1.20;;;20.80;99.90;;;;;;4994417;28;20566;-73
2022/09/06 13:33:00;;;;;;;1.70;1.70;;;20.80;99.90;;;;;;4993484;28;21065;-71
2022/09/06 13:35:29;;;;;;;1.50;1.50;;;20.80;99.90;;;;;;4988042;28;20495;-71
2022/09/06 13:38:31;;;;;;;2.07;2.07;;;20.70;99.90;;;;;;4982404;28;20477;-71
2022/09/06 13:41:00;;;;;;;1.43;1.43;;;20.70;99.90;;;;;;4973567;28;20556;-71
2022/09/06 13:43:27;;;;;;;1.70;1.70;;;20.70;99.90;;;;;;4973495;28;20553;-71
2022/09/06 13:46:05;;;;;;;1.60;1.60;;;20.70;99.90;;;;;;4973838;28;20598;-71
2022/09/06 13:48:34;;;;;;;1.60;1.60;;;20.70;99.90;;;;;;4973805;28;20568;-71
2022/09/06 13:51:03;;;;;;;1.50;1.50;;;20.70;99.90;;;;;;4973452;28;20549;-71
2022/09/06 13:53:30;;;;;;;1.97;1.87;;;20.80;99.90;;;;;;4980750;28;20474;-72
2022/09/06 13:55:57;;;;;;;1.83;1.83;;;20.90;99.90;;;;;;4987401;28;20485;-70
2022/09/06 13:58:24;;;;;;;2.33;2.23;;;21.10;99.90;;;;;;4988276;28;20471;-73
2022/09/06 14:00:52;;;;;;;1.50;1.50;;;21.10;99.90;;;;;;4986635;28;20462;-73
2022/09/06 14:03:23;;;;;;;1.50;1.50;;;21.10;99.90;;;;;;4983755;28;20488;-73
2022/09/06 14:05:51;;;;;;;1.63;1.63;;;21.20;99.90;;;;;;4979816;28;20884;-71
2022/09/06 14:08:18;;;;;;;2.40;1.80;;;21.10;99.90;;;;;;4972917;28;20967;-71
2022/09/06 14:10:46;;;;;;;1.60;1.60;;;21.10;99.90;;;;;;4974995;28;20477;-71
2022/09/06 14:13:14;;;;;;;1.90;1.83;;;21.10;99.90;;;;;;4984192;28;20460;-71
2022/09/06 14:15:40;;;;;;;1.47;1.43;;;21.20;99.90;;;;;;4976235;28;20514;-71
2022/09/06 14:18:08;;;;;;;2.23;2.07;;;21.30;99.90;;;;;;4985208;28;20445;-71
2022/09/06 14:20:35;;;;;;;2.10;1.80;;;21.20;99.90;;;;;;4972565;28;20468;-71
2022/09/06 14:23:03;;;;;;;1.57;1.57;;;21.20;99.90;;;;;;4972430;28;20996;-71
2022/09/06 14:25:30;;;;;;;2.43;2.27;;;21.20;99.90;;;;;;4973073;28;20842;-72
2022/09/06 14:27:57;;;;;;;2.57;2.47;;;21.00;99.90;;;;;;4973002;28;20480;-72
2022/09/06 14:30:24;;;;;;;2.10;2.10;;;20.90;99.90;;;;;;4982351;28;20473;-72
2022/09/06 14:32:50;;;;;;;2.07;2.07;;;20.80;99.90;;;;;;4979051;28;20949;-72
2022/09/06 14:35:17;;;;;;;2.27;2.27;;;20.80;99.90;;;;;;4972023;28;20491;-72
2022/09/06 14:37:44;;;;;;;5.20;2.33;;;20.80;99.90;;;;;;4972493;28;20478;-72
2022/09/06 14:40:12;;;;;;;2.00;1.90;;;20.80;99.90;;;;;;4972571;28;20466;-72
2022/09/06 14:42:39;;;;;;;2.70;2.60;;;20.80;99.90;;;;;;4972504;28;20779;-72
2022/09/06 14:45:07;;;;;;;2.03;1.93;;;20.80;99.90;;;;;;4972658;28;20519;-72
2022/09/06 14:47:33;;;;;;;2.30;2.30;;;20.80;99.90;;;;;;4987271;28;20851;-72
2022/09/06 14:50:01;;;;;;;1.80;1.80;;;20.80;99.90;;;;;;4972184;28;20566;-72
2022/09/06 14:52:28;;;;;;;2.17;2.17;;;20.80;99.90;;;;;;4972651;28;20496;-72
2022/09/06 14:54:54;;;;;;;2.70;2.60;;;20.80;99.90;;;;;;4972146;28;20999;-72
2022/09/06 14:57:22;;;;;;;3.33;2.30;;;20.70;99.90;;;;;;4972671;28;20467;-73
2022/09/06 14:59:49;;;;;;;1.57;1.53;;;20.80;99.90;;;;;;4972660;28;20493;-73
2022/09/06 15:02:16;;;;;;;1.77;1.67;;;20.80;99.90;;;;;;4971721;28;20532;-72
2022/09/06 15:04:42;;;;;;;2.30;2.20;;;20.80;99.90;;;;;;4983034;28;20490;-73
2022/09/06 15:07:09;;;;;;;1.57;1.57;;;20.80;99.90;;;;;;4991181;28;20842;-72
2022/09/06 15:09:36;;;;;;;2.50;2.30;;;20.80;99.90;;;;;;4991486;28;20483;-72
2022/09/06 15:12:03;;;;;;;1.97;1.87;;;20.90;99.90;;;;;;4991577;28;20472;-72
2022/09/06 15:14:32;;;;;;;1.90;1.90;;;20.90;99.90;;;;;;4990893;28;20478;-72
2022/09/06 15:17:01;;;;;;;2.00;2.00;;;20.80;99.90;;;;;;4993010;28;20472;-72
2022/09/06 15:19:29;;;;;;;1.93;1.93;;;20.80;99.90;;;;;;4989329;28;20478;-71
2022/09/06 15:21:57;;;;;;;2.53;2.43;;;20.80;99.90;;;;;;4984416;28;20475;-71
2022/09/06 15:24:24;;;;;;;2.67;2.43;;;20.80;99.90;;;;;;4980909;28;20509;-71
2022/09/06 15:26:50;;;;;;;1.63;1.63;;;20.80;99.90;;;;;;4979620;28;20472;-72
2022/09/06 15:29:18;;;;;;;1.90;1.90;;;20.70;99.90;;;;;;4971524;28;20473;-71
2022/09/06 15:31:49;;;;;;;1.90;1.90;;;20.70;99.90;;;;;;4971918;28;20499;-71
2022/09/06 15:34:16;;;;;;;1.93;1.93;;;20.70;99.90;;;;;;4971249;28;20974;-71
2022/09/06 15:36:43;;;;;;;1.77;1.77;;;20.70;99.90;;;;;;4982583;28;20467;-72
2022/09/06 15:39:09;;;;;;;2.27;2.17;;;20.70;99.90;;;;;;4990532;28;20470;-71
2022/09/06 15:41:39;;;;;;;1.60;1.60;;;20.70;99.90;;;;;;4991143;28;20986;-71
2022/09/06 15:44:09;;;;;;;2.43;2.30;;;20.70;99.90;;;;;;4990774;28;20491;-71
2022/09/06 15:46:46;;;;;;;1.70;1.70;;;20.70;99.90;;;;;;4983088;28;20576;-72
2022/09/06 15:49:15;;;;;;;2.13;2.13;;;20.70;99.90;;;;;;4979712;28;20465;-72
2022/09/06 15:51:42;;;;;;;2.27;2.17;;;20.70;99.90;;;;;;4971202;28;21047;-72
2022/09/06 15:54:10;;;;;;;1.90;1.90;;;20.70;99.90;;;;;;4971049;28;20475;-72
2022/09/06 15:56:36;;;;;;;1.93;1.93;;;20.70;99.90;;;;;;4971772;28;20506;-72
2022/09/06 15:59:03;;;;;;;2.37;2.27;;;20.70;99.90;;;;;;4971640;28;20460;-73
2022/09/06 16:01:32;;;;;;;3.10;2.33;;;20.70;99.90;;;;;;4976554;28;20922;-72
2022/09/06 16:04:04;;;;;;;2.10;2.00;;;20.70;99.90;;;;;;4979182;28;20516;-72
2022/09/06 16:06:34;;;;;;;2.47;2.37;;;20.60;99.90;;;;;;4979263;28;20889;-72
2022/09/06 16:09:04;;;;;;;2.10;2.00;;;20.60;99.90;;;;;;4970975;28;20604;-72
2022/09/06 16:11:34;;;;;;;2.27;2.17;;;20.60;99.90;;;;;;4971690;28;20468;-72
2022/09/06 16:14:02;;;;;;;3.00;2.80;;;20.60;99.90;;;;;;4971050;28;20559;-71
2022/09/06 16:16:28;;;;;;;2.77;2.07;;;20.60;99.90;;;;;;4976022;28;20514;-71
2022/09/06 16:18:56;;;;;;;2.07;2.07;;;20.60;99.90;;;;;;4981185;28;20481;-70
2022/09/06 16:21:28;;;;;;;2.50;2.40;;;20.60;99.90;;;;;;4982569;28;20557;-70
2022/09/06 16:23:56;;;;;;;1.83;1.83;;;20.60;99.90;;;;;;4974497;28;20521;-71
2022/09/06 16:26:25;;;;;;;2.57;2.47;;;20.70;99.90;;;;;;4975199;28;20486;-70
2022/09/06 16:28:52;;;;;;;4.30;1.77;;;20.70;99.90;;;;;;4975069;28;20481;-70
2022/09/06 16:31:20;;;;;;;2.63;2.53;;;20.60;99.90;;;;;;4974875;28;20471;-70
2022/09/06 16:33:47;;;;;;;2.00;2.00;;;20.60;99.90;;;;;;4987375;28;20570;-71
2022/09/06 16:36:14;;;;;;;2.20;2.17;;;20.50;99.90;;;;;;4989919;28;20506;-70
2022/09/06 16:38:43;;;;;;;2.17;2.17;;;20.50;99.90;;;;;;4985758;28;20562;-70
2022/09/06 16:41:13;;;;;;;2.10;2.10;;;20.50;99.90;;;;;;4978847;28;20460;-70
2022/09/06 16:43:40;;;;;;;3.40;3.20;;;20.40;99.90;;;;;;4974555;28;20817;-70
2022/09/06 16:46:07;;;;;;;2.80;2.60;;;20.30;99.90;;;;;;4980882;28;20494;-70
2022/09/06 16:48:34;;;;;;;2.17;2.17;;;20.30;99.90;;;;;;4991262;28;20478;-70
2022/09/06 16:51:12;;;;;;;2.53;2.40;;;20.20;99.90;;;;;;4979635;28;20481;-70
2022/09/06 16:53:40;;;;;;;2.07;1.97;;;20.10;99.90;;;;;;4984247;28;20462;-70
2022/09/06 16:56:09;;;;;;;2.60;2.43;;;20.10;99.90;;;;;;4978936;28;20995;-70
2022/09/06 16:58:37;;;;;;;2.33;2.33;;;20.00;99.90;;;;;;4974689;28;20482;-70
2022/09/06 17:01:05;;;;;;;1.77;1.77;;;20.00;99.90;;;;;;4974223;28;20462;-70